sensor_id;sensor_type;location;lat;lon;timestamp;P1;durP1;ratioP1;P2;durP2;ratioP2
5955;SDS011;3004;48.080;11.600;2023-04-20T00:13:34;72.90;;;6.87;;
5955;SDS011;3004;48.080;11.600;2023-04-20T00:39:26;72.80;;;7.00;;
5955;SDS011;3004;48.080;11.600;2023-04-20T00:42:04;73.30;;;7.07;;
5955;SDS011;3004;48.080;11.600;2023-04-20T00:44:32;73.00;;;7.07;;
5955;SDS011;3004;48.080;11.600;2023-04-20T00:52:17;74.30;;;8.40;;
5955;SDS011;3004;48.080;11.600;2023-04-20T00:58:21;73.37;;;7.50;;
5955;SDS011;3004;48.080;11.600;2023-04-20T01:00:53;72.73;;;6.90;;
5955;SDS011;3004;48.080;11.600;2023-04-20T01:08:31;72.30;;;6.87;;
5955;SDS011;3004;48.080;11.600;2023-04-20T01:10:59;72.80;;;6.83;;
5955;SDS011;3004;48.080;11.600;2023-04-20T01:13:34;72.90;;;6.90;;
5955;SDS011;3004;48.080;11.600;2023-04-20T01:16:07;72.80;;;6.90;;
5955;SDS011;3004;48.080;11.600;2023-04-20T01:24:05;72.80;;;7.10;;
5955;SDS011;3004;48.080;11.600;2023-04-20T01:29:31;72.97;;;7.60;;
5955;SDS011;3004;48.080;11.600;2023-04-20T01:32:03;73.07;;;7.17;;
5955;SDS011;3004;48.080;11.600;2023-04-20T04:38:21;70.80;;;7.87;;
5955;SDS011;3004;48.080;11.600;2023-04-20T04:40:58;70.97;;;7.87;;
5955;SDS011;3004;48.080;11.600;2023-04-20T04:43:37;71.10;;;7.87;;
5955;SDS011;3004;48.080;11.600;2023-04-20T04:46:13;71.53;;;8.13;;
5955;SDS011;3004;48.080;11.600;2023-04-20T04:49:10;71.27;;;7.80;;
5955;SDS011;3004;48.080;11.600;2023-04-20T04:51:39;71.37;;;7.73;;
5955;SDS011;3004;48.080;11.600;2023-04-20T04:54:27;71.43;;;7.87;;
5955;SDS011;3004;48.080;11.600;2023-04-20T04:57:12;71.30;;;7.93;;
5955;SDS011;3004;48.080;11.600;2023-04-20T05:00:15;71.57;;;8.30;;
5955;SDS011;3004;48.080;11.600;2023-04-20T05:03:23;71.17;;;7.77;;
5955;SDS011;3004;48.080;11.600;2023-04-20T05:45:19;70.77;;;7.97;;
5955;SDS011;3004;48.080;11.600;2023-04-20T05:51:41;70.37;;;8.13;;
5955;SDS011;3004;48.080;11.600;2023-04-20T05:54:18;70.30;;;8.27;;
5955;SDS011;3004;48.080;11.600;2023-04-20T06:00:49;70.30;;;8.13;;
5955;SDS011;3004;48.080;11.600;2023-04-20T06:03:18;70.43;;;8.13;;
5955;SDS011;3004;48.080;11.600;2023-04-20T06:06:30;70.40;;;8.07;;
5955;SDS011;3004;48.080;11.600;2023-04-20T06:13:17;70.60;;;7.93;;
5955;SDS011;3004;48.080;11.600;2023-04-20T06:19:28;70.40;;;8.03;;
5955;SDS011;3004;48.080;11.600;2023-04-20T06:22:18;70.67;;;7.97;;
5955;SDS011;3004;48.080;11.600;2023-04-20T06:25:08;70.73;;;7.97;;
5955;SDS011;3004;48.080;11.600;2023-04-20T06:27:46;70.57;;;8.03;;
5955;SDS011;3004;48.080;11.600;2023-04-20T06:30:22;70.60;;;7.97;;
5955;SDS011;3004;48.080;11.600;2023-04-20T06:39:55;70.47;;;7.97;;
5955;SDS011;3004;48.080;11.600;2023-04-20T06:42:37;70.57;;;7.97;;
5955;SDS011;3004;48.080;11.600;2023-04-20T06:45:27;70.50;;;7.90;;
5955;SDS011;3004;48.080;11.600;2023-04-20T06:48:15;70.77;;;7.90;;
5955;SDS011;3004;48.080;11.600;2023-04-20T06:57:31;70.57;;;8.00;;
5955;SDS011;3004;48.080;11.600;2023-04-20T07:00:17;70.47;;;8.10;;
5955;SDS011;3004;48.080;11.600;2023-04-20T07:03:20;70.37;;;8.03;;
5955;SDS011;3004;48.080;11.600;2023-04-20T07:06:02;70.40;;;8.07;;
5955;SDS011;3004;48.080;11.600;2023-04-20T07:11:25;70.50;;;8.30;;
5955;SDS011;3004;48.080;11.600;2023-04-20T07:14:08;70.77;;;7.90;;
5955;SDS011;3004;48.080;11.600;2023-04-20T07:16:57;75.40;;;10.83;;
5955;SDS011;3004;48.080;11.600;2023-04-20T07:19:31;70.57;;;8.00;;
5955;SDS011;3004;48.080;11.600;2023-04-20T07:22:19;70.87;;;8.10;;
5955;SDS011;3004;48.080;11.600;2023-04-20T07:25:11;70.87;;;8.00;;
5955;SDS011;3004;48.080;11.600;2023-04-20T07:27:53;70.70;;;7.97;;
5955;SDS011;3004;48.080;11.600;2023-04-20T07:30:35;71.00;;;7.87;;
5955;SDS011;3004;48.080;11.600;2023-04-20T07:33:34;78.03;;;9.83;;
5955;SDS011;3004;48.080;11.600;2023-04-20T07:36:06;71.10;;;7.73;;
5955;SDS011;3004;48.080;11.600;2023-04-20T07:38:50;71.37;;;7.83;;
5955;SDS011;3004;48.080;11.600;2023-04-20T07:41:31;71.20;;;7.87;;
5955;SDS011;3004;48.080;11.600;2023-04-20T07:44:11;71.23;;;7.80;;
5955;SDS011;3004;48.080;11.600;2023-04-20T07:46:46;71.50;;;7.63;;
5955;SDS011;3004;48.080;11.600;2023-04-20T07:49:17;71.73;;;7.60;;
5955;SDS011;3004;48.080;11.600;2023-04-20T07:51:50;71.70;;;7.60;;
5955;SDS011;3004;48.080;11.600;2023-04-20T07:54:43;71.57;;;7.57;;
5955;SDS011;3004;48.080;11.600;2023-04-20T07:57:28;71.50;;;7.93;;
5955;SDS011;3004;48.080;11.600;2023-04-20T08:00:14;71.83;;;7.83;;
5955;SDS011;3004;48.080;11.600;2023-04-20T08:02:48;71.63;;;7.70;;
5955;SDS011;3004;48.080;11.600;2023-04-20T08:05:17;71.03;;;7.70;;
5955;SDS011;3004;48.080;11.600;2023-04-20T08:07:53;71.00;;;7.53;;
5955;SDS011;3004;48.080;11.600;2023-04-20T08:18:02;71.83;;;7.73;;
5955;SDS011;3004;48.080;11.600;2023-04-20T08:20:33;71.40;;;7.60;;
5955;SDS011;3004;48.080;11.600;2023-04-20T08:23:27;72.00;;;7.77;;
5955;SDS011;3004;48.080;11.600;2023-04-20T08:26:05;71.77;;;7.53;;
5955;SDS011;3004;48.080;11.600;2023-04-20T08:28:49;71.83;;;7.47;;
5955;SDS011;3004;48.080;11.600;2023-04-20T08:31:30;72.03;;;7.70;;
5955;SDS011;3004;48.080;11.600;2023-04-20T08:34:24;71.97;;;7.60;;
5955;SDS011;3004;48.080;11.600;2023-04-20T08:37:37;72.37;;;7.43;;
5955;SDS011;3004;48.080;11.600;2023-04-20T08:40:19;72.20;;;7.43;;
5955;SDS011;3004;48.080;11.600;2023-04-20T08:43:31;72.57;;;7.80;;
5955;SDS011;3004;48.080;11.600;2023-04-20T08:46:13;72.20;;;7.43;;
5955;SDS011;3004;48.080;11.600;2023-04-20T08:48:48;72.00;;;7.40;;
5955;SDS011;3004;48.080;11.600;2023-04-20T08:51:27;71.97;;;7.40;;
5955;SDS011;3004;48.080;11.600;2023-04-20T08:54:02;71.80;;;7.47;;
5955;SDS011;3004;48.080;11.600;2023-04-20T08:57:00;71.97;;;7.47;;
5955;SDS011;3004;48.080;11.600;2023-04-20T09:00:05;71.97;;;7.63;;
5955;SDS011;3004;48.080;11.600;2023-04-20T09:02:52;72.43;;;8.20;;
5955;SDS011;3004;48.080;11.600;2023-04-20T09:05:29;72.30;;;7.47;;
5955;SDS011;3004;48.080;11.600;2023-04-20T09:08:22;72.07;;;7.30;;
5955;SDS011;3004;48.080;11.600;2023-04-20T09:14:44;72.30;;;7.43;;
5955;SDS011;3004;48.080;11.600;2023-04-20T09:17:18;72.10;;;7.63;;
5955;SDS011;3004;48.080;11.600;2023-04-20T09:30:35;72.77;;;7.50;;
5955;SDS011;3004;48.080;11.600;2023-04-20T09:37:20;72.57;;;7.37;;
5955;SDS011;3004;48.080;11.600;2023-04-20T10:00:35;72.77;;;7.07;;
5955;SDS011;3004;48.080;11.600;2023-04-20T10:50:09;72.37;;;6.63;;
5955;SDS011;3004;48.080;11.600;2023-04-20T10:52:47;72.00;;;6.60;;
5955;SDS011;3004;48.080;11.600;2023-04-20T10:55:56;72.30;;;6.63;;
5955;SDS011;3004;48.080;11.600;2023-04-20T11:08:34;72.77;;;7.00;;
5955;SDS011;3004;48.080;11.600;2023-04-20T11:11:18;71.90;;;6.30;;
5955;SDS011;3004;48.080;11.600;2023-04-20T11:13:51;71.70;;;6.17;;
5955;SDS011;3004;48.080;11.600;2023-04-20T11:16:49;72.10;;;6.73;;
5955;SDS011;3004;48.080;11.600;2023-04-20T11:34:49;72.20;;;6.60;;
5955;SDS011;3004;48.080;11.600;2023-04-20T11:44:34;72.47;;;6.90;;
5955;SDS011;3004;48.080;11.600;2023-04-20T12:33:16;71.50;;;5.70;;
5955;SDS011;3004;48.080;11.600;2023-04-20T12:35:55;71.10;;;5.60;;
5955;SDS011;3004;48.080;11.600;2023-04-20T12:38:27;71.40;;;5.57;;
5955;SDS011;3004;48.080;11.600;2023-04-20T12:41:04;71.07;;;5.50;;
5955;SDS011;3004;48.080;11.600;2023-04-20T12:43:44;70.90;;;5.43;;
5955;SDS011;3004;48.080;11.600;2023-04-20T12:46:17;71.30;;;5.40;;
5955;SDS011;3004;48.080;11.600;2023-04-20T12:48:55;71.10;;;5.47;;
5955;SDS011;3004;48.080;11.600;2023-04-20T12:51:32;71.20;;;5.67;;
5955;SDS011;3004;48.080;11.600;2023-04-20T12:54:13;71.10;;;5.40;;
5955;SDS011;3004;48.080;11.600;2023-04-20T13:30:41;70.67;;;4.87;;
5955;SDS011;3004;48.080;11.600;2023-04-20T13:33:23;70.70;;;4.90;;
5955;SDS011;3004;48.080;11.600;2023-04-20T13:35:56;70.60;;;4.97;;
5955;SDS011;3004;48.080;11.600;2023-04-20T13:38:27;70.50;;;4.77;;
5955;SDS011;3004;48.080;11.600;2023-04-20T13:41:29;71.10;;;4.97;;
5955;SDS011;3004;48.080;11.600;2023-04-20T13:43:58;70.50;;;4.90;;
5955;SDS011;3004;48.080;11.600;2023-04-20T14:11:20;74.50;;;6.90;;
5955;SDS011;3004;48.080;11.600;2023-04-20T14:23:35;71.43;;;5.10;;
5955;SDS011;3004;48.080;11.600;2023-04-20T14:26:21;71.10;;;5.00;;
5955;SDS011;3004;48.080;11.600;2023-04-20T14:32:03;71.87;;;5.40;;
5955;SDS011;3004;48.080;11.600;2023-04-20T15:04:35;71.40;;;5.20;;
5955;SDS011;3004;48.080;11.600;2023-04-20T15:07:07;71.30;;;5.17;;
5955;SDS011;3004;48.080;11.600;2023-04-20T16:43:40;70.40;;;4.60;;
5955;SDS011;3004;48.080;11.600;2023-04-20T17:56:39;70.90;;;4.87;;
5955;SDS011;3004;48.080;11.600;2023-04-20T17:59:07;71.20;;;5.00;;
5955;SDS011;3004;48.080;11.600;2023-04-20T18:01:39;70.80;;;4.87;;
5955;SDS011;3004;48.080;11.600;2023-04-20T18:04:08;70.70;;;4.90;;
5955;SDS011;3004;48.080;11.600;2023-04-20T18:06:38;71.27;;;4.83;;
5955;SDS011;3004;48.080;11.600;2023-04-20T18:09:15;71.10;;;5.00;;
5955;SDS011;3004;48.080;11.600;2023-04-20T18:11:44;71.20;;;4.83;;
5955;SDS011;3004;48.080;11.600;2023-04-20T19:04:19;71.57;;;5.60;;
5955;SDS011;3004;48.080;11.600;2023-04-20T19:06:46;71.57;;;5.07;;
5955;SDS011;3004;48.080;11.600;2023-04-20T19:09:14;71.70;;;5.50;;
5955;SDS011;3004;48.080;11.600;2023-04-20T19:11:42;72.60;;;5.10;;
5955;SDS011;3004;48.080;11.600;2023-04-20T19:40:13;71.30;;;5.33;;
5955;SDS011;3004;48.080;11.600;2023-04-20T19:45:44;71.47;;;5.30;;
5955;SDS011;3004;48.080;11.600;2023-04-20T20:06:24;71.40;;;5.10;;
5955;SDS011;3004;48.080;11.600;2023-04-20T20:08:55;71.73;;;5.07;;
5955;SDS011;3004;48.080;11.600;2023-04-20T20:23:38;71.20;;;5.10;;
5955;SDS011;3004;48.080;11.600;2023-04-20T20:26:05;70.90;;;4.90;;
5955;SDS011;3004;48.080;11.600;2023-04-20T20:28:32;71.57;;;5.20;;
5955;SDS011;3004;48.080;11.600;2023-04-20T20:31:00;71.03;;;5.00;;
5955;SDS011;3004;48.080;11.600;2023-04-20T20:33:27;70.80;;;5.00;;
5955;SDS011;3004;48.080;11.600;2023-04-20T20:35:54;71.53;;;5.50;;
5955;SDS011;3004;48.080;11.600;2023-04-20T20:43:59;70.80;;;4.90;;
